Metar Cercanos

 

LEPA - Palma De Mallorc, Spain
Distance from station: ONO 38km
Actualización: 23/01/2018 08:30
Despejado
Despejado
 Viento del calm
Viento: Calma
Temperatura: 6°C
Rocío: 5°C
Humedad: 93%
Barómetro: 1025 hPa
Resumen: Despejado
Visibility: greater than 10 km
2018/01/23 07:30 LEPA 230730Z 00000KT CAVOK 06/05 Q1025 NOSIG
LEMH - Mahon/Menorca Is, Spain
Distance from station: ENE 105km
Actualización: 23/01/2018 08:30
Few Clouds
Few Clouds
 Viento del calm
Viento: Calma
Temperatura: 10°C
Rocío: 9°C
Humedad: 94%
Barómetro: 1025 hPa
Clouds: Few Clouds
Visibility: 10 km
Cloud details: Few Clouds 610 m
2018/01/23 07:30 LEMH 230730Z 00000KT 9999 FEW020 10/09 Q1025
 
LEIB - Ibiza/Es Codola, Spain
Distance from station: OSO 165km
Actualización: 23/01/2018 08:30
Despejado
Despejado
 Viento del varies
Viento: varies 4 km/h
Temperatura: 12°C
Rocío: 8°C
Humedad: 77%
Barómetro: 1026 hPa
Resumen: Despejado
Visibility: greater than 10 km
2018/01/23 07:30 LEIB 230730Z VRB02KT CAVOK 12/08 Q1026 NOSIG
LEBL - Barcelona Airpor, Spain
Distance from station: NNO 225km
Actualización: 23/01/2018 08:30
Few Clouds
Few Clouds
 Viento del N
Viento: N 19 km/h, Racha: 37 km/h
Temperatura: 9°C
Sensación frio: 6°C
Rocío: 6°C
Humedad: 82%
Barómetro: 1025 hPa
Clouds: Few Clouds
Visibility: 10 km
Cloud details: Few Clouds 914 m
2018/01/23 07:30 LEBL 230730Z 35010G20KT 310V060 9999 FEW030 09/06 Q1025 NOSIG
 
LEVC - Valencia (civ/Mi, Spain
Distance from station: NO 188km
Actualización: 23/01/2018 08:30
Despejado
Despejado
 Viento del calm
Viento: Calma
Temperatura: 8°C
Rocío: 3°C
Humedad: 71%
Barómetro: 1026 hPa
Resumen: Despejado
Visibility: greater than 10 km
2018/01/23 07:30 LEVC 230730Z 00000KT CAVOK 08/03 Q1026 NOSIG
LEGE - Gerona/Costa Bra, Spain
Distance from station: N 276km
Actualización: 23/01/2018 08:30
Few Clouds
Few Clouds
 Viento del calm
Viento: Calma
Temperatura: 3°C
Rocío: 3°C
Humedad: 100%
Barómetro: 1025 hPa
Clouds: Few Clouds
Visibility: 9 km
Cloud details: Few Clouds 122 m
2018/01/23 07:30 LEGE 230730Z 00000KT 9000 FEW004 03/03 Q1025
 
LEAL - Alicante/El Alte, Spain
Distance from station: OSO 344km
Actualización: 23/01/2018 08:30
Despejado
Despejado
 Viento del varies
Viento: varies 4 km/h
Temperatura: 9°C
Rocío: 4°C
Humedad: 71%
Barómetro: 1026 hPa
Resumen: Despejado
Visibility: greater than 10 km
2018/01/23 07:30 LEAL 230730Z VRB02KT CAVOK 09/04 Q1026 NOSIG
LEAM - Almeria Airport, Spain
Distance from station: SSO 56km
Actualización: 23/01/2018 08:40
Patches of fog, Cubierto
Patches of fog, Cubierto
 Viento del calm
Viento: Calma
Temperatura: 7°C
Rocío: 7°C
Humedad: 100%
Barómetro: 1026 hPa
Resumen: Patches of Fog
Clouds: Cubierto
Visibility: 0 km
Cloud details: Cubierto 30 m
2018/01/23 07:40 LEAM 230740Z 00000KT 0300 R25/P2000 R07/0600D BCFG VV001 07/07 Q1026
 
LEZG - Zaragoza (mil/Ci, Spain
Distance from station: NO 431km
Actualización: 23/01/2018 08:30
Few Clouds
Few Clouds
 Viento del O
Viento: O 15 km/h
Temperatura: 11°C
Rocío: 8°C
Humedad: 82%
Barómetro: 1027 hPa
Clouds: Few Clouds
Visibility: 10 km
Cloud details: Few Clouds 1219 m
2018/01/23 07:30 LEZG 230730Z 28008KT 9999 FEW040 11/08 Q1027
LEMD - Madrid/Barajas, Spain
Distance from station: ONO 234km
Actualización: 23/01/2018 08:30
Despejado
Despejado
 Viento del NNO
Viento: NNO 7 km/h
Temperatura: 1°C
Sensación frio: -2°C
Rocío: 0°C
Humedad: 93%
Barómetro: 1029 hPa
Resumen: Despejado
Visibility: greater than 10 km
2018/01/23 07:30 LEMD 230730Z 34004KT CAVOK 01/M00 Q1029 NOSIG
 
LEGR - Granada Airport, Spain
Distance from station: OSO 62km
Actualización: 23/01/2018 08:30
Parcialmente nuboso
Parcialmente nuboso
 Viento del SSO
Viento: SSO 2 km/h
Temperatura: 1°C
Rocío: 0°C
Humedad: 93%
Barómetro: 1027 hPa
Clouds: Parcialmente nuboso
Visibility: 7 km
2018/01/23 07:30 LEGR 230730Z 21001KT 7000 NSC 01/00 Q1027
LEMG - Malaga (civ/Mil), Spain
Distance from station: OSO 227km
Actualización: 23/01/2018 08:30
Despejado
Despejado
 Viento del O
Viento: O 13 km/h
Temperatura: 9°C
Sensación frio: 7°C
Rocío: 6°C
Humedad: 82%
Barómetro: 1026 hPa
Resumen: Despejado
Visibility: greater than 10 km
2018/01/23 07:30 LEMG 230730Z 28007KT CAVOK 09/06 Q1026 NOSIG
 
LEZL - Sevilla (civ/Mil, Spain
Distance from station: S 318km
Actualización: 23/01/2018 08:30
Despejado
Despejado
 Viento del varies
Viento: varies 2 km/h
Temperatura: 9°C
Rocío: 7°C
Humedad: 87%
Barómetro: 1027 hPa
Resumen: Despejado
Visibility: greater than 10 km
2018/01/23 07:30 LEZL 230730Z VRB01KT CAVOK 09/07 Q1027 NOSIG
LEVT - Vitoria, Spain
Distance from station: NO 226km
Actualización: 23/01/2018 08:30
Muy nuboso
Muy nuboso
 Viento del calm
Viento: Calma
Temperatura: 7°C
Rocío: 7°C
Humedad: 100%
Barómetro: 1029 hPa
Clouds: Muy nuboso
Visibility: 10 km
Cloud details: Muy nuboso 762 m
2018/01/23 07:30 LEVT 230730Z 00000KT 9999 BKN025 07/07 Q1029
 
LEBB - Bilbao/Sondica, Spain
Distance from station: NNO 235km
Actualización: 23/01/2018 08:30
Muy nuboso
Muy nuboso
 Viento del ESE
Viento: ESE 6 km/h
Temperatura: 12°C
Rocío: 11°C
Humedad: 94%
Barómetro: 1029 hPa
Clouds: Muy nuboso
Visibility: 10 km
Cloud details: Muy nuboso 1280 m
2018/01/23 07:30 LEBB 230730Z 11003KT 090V150 9999 BKN042 12/11 Q1029 NOSIG
LESO - San Sebastian/Fu, Spain
Distance from station: N 231km
Actualización: 23/01/2018 08:30
Light drizzle, Mist, Cubierto
Light drizzle, Mist, Cubierto
 Viento del SO
Viento: SO 7 km/h
Temperatura: 13°C
Rocío: 13°C
Humedad: 100%
Barómetro: 1029 hPa
Resumen: Light drizzle, Mist
Clouds: Cubierto
Visibility: 3 km
Cloud details: Muy nuboso 335 m
Muy nuboso 853 m
Cubierto 1189 m
2018/01/23 07:30 LESO 230730Z 22004KT 190V260 3000 -DZ BR BKN011 BKN028 OVC039 13/13 Q1029
 
LEVD - Valladolid(Mil/C, Spain
Distance from station: ONO 239km
Actualización: 23/01/2018 08:30
Mist, Cubierto
Mist, Cubierto
 Viento del varies
Viento: varies 2 km/h
Temperatura: 4°C
Rocío: 4°C
Humedad: 100%
Barómetro: 1030 hPa
Resumen: Mist
Clouds: Cubierto
Visibility: 2 km
Cloud details: Cubierto 61 m
2018/01/23 07:30 LEVD 230730Z VRB01KT 2000 BR OVC002 04/04 Q1030
LESA - Salamanca (civ/M, Spain
Distance from station: ONO 349km
Actualización: 23/01/2018 08:30
Niebla, Cubierto
Niebla, Cubierto
 Viento del varies
Viento: varies 4 km/h
Temperatura: 1°C
Rocío: 1°C
Humedad: 100%
Barómetro: 1030 hPa
Resumen: Niebla
Clouds: Cubierto
Visibility: 0 km
Cloud details: Cubierto 30 m
2018/01/23 07:30 LESA 230730Z VRB02KT 0050 R21/0300N FG VV001 01/01 Q1030
 
LEXJ - Santander/Paraya, Spain
Distance from station: NNO 247km
Actualización: 23/01/2018 08:30
Cubierto
Cubierto
 Viento del S
Viento: S 7 km/h
Temperatura: 13°C
Rocío: 10°C
Humedad: 82%
Barómetro: 1029 hPa
Clouds: Cubierto
Visibility: 10 km
Cloud details: Cubierto 1433 m
2018/01/23 07:30 LEXJ 230730Z 19004KT 150V230 9999 OVC047 13/10 Q1029
LEAS - Asturias/Aviles, Spain
Distance from station: NO 214km
Actualización: 23/01/2018 08:30
Muy nuboso
Muy nuboso
 Viento del SO
Viento: SO 17 km/h
Temperatura: 11°C
Rocío: 6°C
Humedad: 72%
Barómetro: 1028 hPa
Clouds: Muy nuboso
Visibility: 10 km
Cloud details: Muy nuboso 1341 m
2018/01/23 07:30 LEAS 230730Z 23009KT 9999 BKN044 11/06 Q1028 NOSIG
 
LECO - La Coruna/Alvedr, Spain
Distance from station: ONO 222km
Actualización: 23/01/2018 08:30
Muy nuboso
Muy nuboso
 Viento del S
Viento: S 6 km/h
Temperatura: 12°C
Rocío: 10°C
Humedad: 88%
Barómetro: 1029 hPa
Clouds: Muy nuboso
Visibility: 10 km
Cloud details: Muy nuboso 1219 m
2018/01/23 07:30 LECO 230730Z 17003KT 9999 BKN040 12/10 Q1029 NOSIG
LEVX - Vigo/Peinador, Spain
Distance from station: O 214km
Actualización: 23/01/2018 08:36
Patches of fog, Cubierto
Patches of fog, Cubierto
 Viento del varies
Viento: varies 4 km/h
Temperatura: 11°C
Rocío: 11°C
Humedad: 100%
Barómetro: 1030 hPa
Resumen: Patches of Fog
Clouds: Cubierto
Visibility: 0 km
Cloud details: Cubierto 30 m
2018/01/23 07:36 LEVX 230736Z VRB02KT 0300 R19/P2000 R01/0375N BCFG VV001 11/11 Q1030 TEMPO 0600